Time;durP1;ratioP1;P1;durP2;ratioP2;P2;SDS_P1;SDS_P2;PMS_P1;PMS_P2;Temp;Humidity;BMP_temperature;BMP_pressure;BME280_temperature;BME280_humidity;BME280_pressure;Samples;Min_cycle;Max_cycle;Signal;HPM_P1;HPM_P2
2022/03/28 00:01:51;;;;;;;;;;;;;;;6.74;76.08;101030.41;6197030;22;19923;-88
2022/03/28 00:04:16;;;;;;;;;;;;;;;6.77;76.19;101023.31;6223061;22;19915;-89
2022/03/28 00:06:42;;;;;;;;;;;;;;;6.75;76.58;101025.69;6222731;22;20320;-89
2022/03/28 00:09:07;;;;;;;;;;;;;;;6.70;77.09;101023.28;6222632;22;20013;-89
2022/03/28 00:11:33;;;;;;;;;;;;;;;6.64;77.70;101014.59;6221981;22;19915;-88
2022/03/28 00:13:58;;;;;;;;;;;;;;;6.61;77.20;101017.34;6222617;22;19919;-90
2022/03/28 00:16:24;;;;;;;;;;;;;;;6.51;76.54;101016.13;6221757;22;19922;-89
2022/03/28 00:18:49;;;;;;;;;;;;;;;6.43;76.19;101014.50;6222637;22;20335;-89
2022/03/28 00:21:15;;;;;;;;;;;;;;;6.34;76.50;101011.28;6222157;22;19934;-88
2022/03/28 00:23:40;;;;;;;;;;;;;;;6.37;75.38;100997.53;6222102;22;19985;-89
2022/03/28 00:26:05;;;;;;;;;;;;;;;6.28;75.82;101010.06;6222382;22;19994;-88
2022/03/28 00:28:31;;;;;;;;;;;;;;;6.22;76.37;101004.13;6222229;22;19966;-89
2022/03/28 00:30:56;;;;;;;;;;;;;;;6.19;76.69;101004.13;6223428;22;19915;-89
2022/03/28 00:33:22;;;;;;;;;;;;;;;6.17;77.78;101000.94;6222152;22;19993;-89
2022/03/28 00:35:47;;;;;;;;;;;;;;;6.12;77.25;100993.81;6222520;22;19922;-88
2022/03/28 00:38:13;;;;;;;;;;;;;;;6.10;76.70;101001.69;6222096;22;19946;-89
2022/03/28 00:40:38;;;;;;;;;;;;;;;6.03;76.80;101007.13;6197558;22;19973;-89
2022/03/28 00:43:05;;;;;;;;;;;;;;;5.90;77.41;101000.38;6222140;22;19918;-89
2022/03/28 00:45:31;;;;;;;;;;;;;;;5.91;77.51;100999.19;6222093;22;19957;-89
2022/03/28 00:47:56;;;;;;;;;;;;;;;5.88;77.76;101005.47;6221973;22;20348;-89
2022/03/28 00:50:23;;;;;;;;;;;;;;;5.82;77.77;100990.44;6197549;22;19926;-89
2022/03/28 00:52:48;;;;;;;;;;;;;;;5.76;78.86;100991.97;6222404;22;20038;-89
2022/03/28 00:55:13;;;;;;;;;;;;;;;5.79;78.18;100991.19;6221606;22;20324;-90
2022/03/28 00:57:39;;;;;;;;;;;;;;;5.74;77.98;100977.78;6221718;22;19923;-89
2022/03/28 01:00:05;;;;;;;;;;;;;;;5.76;77.61;100989.19;6197682;22;19954;-89
2022/03/28 01:02:31;;;;;;;;;;;;;;;5.81;77.10;100983.34;6196155;22;19922;-89
2022/03/28 01:04:57;;;;;;;;;;;;;;;5.78;77.74;100973.91;6247802;22;19919;-89
2022/03/28 01:07:23;;;;;;;;;;;;;;;5.78;76.95;100995.94;6221671;22;20239;-90
2022/03/28 01:09:48;;;;;;;;;;;;;;;5.61;79.40;100997.34;6222017;22;19915;-89
2022/03/28 01:12:14;;;;;;;;;;;;;;;5.46;80.53;101003.88;6222257;22;19914;-89
2022/03/28 01:14:41;;;;;;;;;;;;;;;5.49;80.26;101000.41;6221790;22;19922;-90
2022/03/28 01:19:51;;;;;;;;;;;;;;;5.44;80.91;100992.47;6225111;22;19915;-89
2022/03/28 01:22:16;;;;;;;;;;;;;;;5.42;81.06;100994.81;6221759;22;19993;-88
2022/03/28 01:24:41;;;;;;;;;;;;;;;5.44;81.30;101000.72;6221835;22;20362;-90
2022/03/28 01:27:07;;;;;;;;;;;;;;;5.40;81.44;101002.66;6221449;22;20528;-89
2022/03/28 01:29:32;;;;;;;;;;;;;;;5.38;82.22;100993.22;6221923;22;19915;-90
2022/03/28 01:31:58;;;;;;;;;;;;;;;5.41;81.54;100987.75;6222215;22;20332;-88
2022/03/28 01:34:23;;;;;;;;;;;;;;;5.34;81.40;100993.16;6221924;22;19918;-89
2022/03/28 01:36:48;;;;;;;;;;;;;;;5.37;82.91;100978.66;6221522;22;20274;-89
2022/03/28 01:39:14;;;;;;;;;;;;;;;5.38;83.70;100985.72;6222350;22;19911;-89
2022/03/28 01:41:40;;;;;;;;;;;;;;;5.40;83.31;100977.91;6246936;22;20291;-88
2022/03/28 01:44:05;;;;;;;;;;;;;;;5.39;83.34;100983.75;6196898;22;20306;-89
2022/03/28 01:46:31;;;;;;;;;;;;;;;5.38;84.00;100971.97;6221779;22;19915;-89
2022/03/28 01:48:56;;;;;;;;;;;;;;;5.33;84.31;100969.59;6196397;22;19919;-89
2022/03/28 01:51:22;;;;;;;;;;;;;;;5.32;84.13;100968.00;6222093;22;20358;-89
2022/03/28 01:53:47;;;;;;;;;;;;;;;5.28;84.32;100956.16;6221031;22;19922;-89
2022/03/28 01:56:12;;;;;;;;;;;;;;;5.27;84.89;100954.56;6222099;22;19915;-87
2022/03/28 01:58:38;;;;;;;;;;;;;;;5.25;85.64;100951.44;6223489;22;19966;-88
2022/03/28 02:01:03;;;;;;;;;;;;;;;5.26;86.64;100953.00;6222175;22;20239;-88
2022/03/28 02:03:29;;;;;;;;;;;;;;;5.28;86.82;100945.16;6221466;22;19915;-88
2022/03/28 02:05:54;;;;;;;;;;;;;;;5.29;87.36;100941.25;6246496;22;20532;-88
2022/03/28 02:08:19;;;;;;;;;;;;;;;5.34;87.39;100943.63;6196755;22;19988;-87
2022/03/28 02:10:45;;;;;;;;;;;;;;;5.38;87.60;100938.94;6196092;22;20298;-87
2022/03/28 02:13:10;;;;;;;;;;;;;;;5.44;88.14;100937.44;6220853;22;19990;-87
2022/03/28 02:15:36;;;;;;;;;;;;;;;5.52;88.24;100939.09;6196278;22;20324;-88
2022/03/28 02:18:01;;;;;;;;;;;;;;;5.59;88.59;100939.13;6221417;22;20295;-88
2022/03/28 02:20:27;;;;;;;;;;;;;;;5.67;88.54;100931.72;6221353;22;19915;-88
2022/03/28 02:22:52;;;;;;;;;;;;;;;5.69;88.03;100931.34;6221109;22;19946;-89
2022/03/28 02:25:18;;;;;;;;;;;;;;;5.71;88.69;100927.03;6221407;22;19986;-88
2022/03/28 02:27:43;;;;;;;;;;;;;;;5.76;88.43;100921.16;6221212;22;19919;-88
2022/03/28 02:30:09;;;;;;;;;;;;;;;5.82;89.76;100918.88;6196174;22;19915;-88
2022/03/28 02:32:35;;;;;;;;;;;;;;;5.87;89.97;100916.56;6220799;22;19926;-87
2022/03/28 02:35:01;;;;;;;;;;;;;;;5.82;88.92;100910.59;6196413;22;19939;-88
2022/03/28 02:37:26;;;;;;;;;;;;;;;5.80;87.35;100910.19;6246857;22;19920;-88
2022/03/28 02:39:52;;;;;;;;;;;;;;;5.67;85.59;100925.41;6222416;22;19994;-87
2022/03/28 02:42:22;;;;;;;;;;;;;;;5.55;84.09;100926.50;6198738;22;19915;-88
2022/03/28 02:44:47;;;;;;;;;;;;;;;5.45;83.05;100927.22;6224540;22;19919;-88
2022/03/28 02:47:13;;;;;;;;;;;;;;;5.34;82.58;100927.13;6198987;22;20280;-88
2022/03/28 02:49:38;;;;;;;;;;;;;;;5.18;83.65;100924.63;6223216;22;19915;-88
2022/03/28 02:52:03;;;;;;;;;;;;;;;5.09;83.40;100921.44;6198404;22;20390;-88
2022/03/28 02:54:29;;;;;;;;;;;;;;;5.09;83.14;100920.63;6249216;22;19915;-87
2022/03/28 02:56:54;;;;;;;;;;;;;;;5.07;83.11;100918.25;6198409;22;19944;-88
2022/03/28 02:59:20;;;;;;;;;;;;;;;4.93;83.65;100917.31;6198444;22;19915;-88
2022/03/28 03:01:48;;;;;;;;;;;;;;;4.90;83.25;100907.06;6198020;22;19916;-88
2022/03/28 03:04:13;;;;;;;;;;;;;;;4.83;83.56;100920.75;6224353;22;19959;-87
2022/03/28 03:06:38;;;;;;;;;;;;;;;4.78;84.50;100910.06;6197810;22;19915;-87
2022/03/28 03:09:04;;;;;;;;;;;;;;;4.78;84.27;100915.56;6222845;22;20382;-89
2022/03/28 03:11:30;;;;;;;;;;;;;;;4.80;84.72;100907.75;6198100;22;20045;-88
2022/03/28 03:13:56;;;;;;;;;;;;;;;4.78;84.47;100912.81;6222999;22;19911;-88
2022/03/28 03:16:21;;;;;;;;;;;;;;;4.72;87.94;100914.34;6223927;22;19994;-88
2022/03/28 03:18:47;;;;;;;;;;;;;;;4.68;88.08;100906.06;6248423;22;19950;-88
2022/03/28 03:21:13;;;;;;;;;;;;;;;4.72;87.83;100909.66;6222988;22;20398;-89
2022/03/28 03:23:38;;;;;;;;;;;;;;;4.74;88.07;100915.53;6221148;22;19919;-88
2022/03/28 03:26:04;;;;;;;;;;;;;;;4.71;87.74;100899.81;6248592;22;19915;-88
2022/03/28 03:28:29;;;;;;;;;;;;;;;4.65;89.32;100910.34;6223250;22;19994;-88
2022/03/28 03:30:55;;;;;;;;;;;;;;;4.62;88.93;100911.09;6222726;22;19919;-88
2022/03/28 03:33:20;;;;;;;;;;;;;;;4.62;87.98;100911.09;6223318;22;20434;-88
2022/03/28 03:35:46;;;;;;;;;;;;;;;4.65;87.37;100910.34;6222895;22;19947;-89
2022/03/28 03:38:11;;;;;;;;;;;;;;;4.66;87.36;100891.91;6223601;22;20343;-88
2022/03/28 03:40:36;;;;;;;;;;;;;;;4.64;86.79;100911.53;6222634;22;19922;-88
2022/03/28 03:43:02;;;;;;;;;;;;;;;4.64;85.70;100910.72;6222864;22;19915;-87
2022/03/28 03:45:29;;;;;;;;;;;;;;;4.61;86.10;100906.75;6224580;22;19931;-87
2022/03/28 03:47:54;;;;;;;;;;;;;;;4.59;87.11;100905.56;6224032;22;19911;-88
2022/03/28 03:50:20;;;;;;;;;;;;;;;4.49;88.21;100909.00;6223357;22;19916;-89
2022/03/28 03:52:45;;;;;;;;;;;;;;;4.43;89.25;100915.97;6222619;22;19946;-88
2022/03/28 03:55:10;;;;;;;;;;;;;;;4.46;90.22;100916.00;6231805;22;19981;-89
2022/03/28 03:57:36;;;;;;;;;;;;;;;4.52;88.88;100900.78;6243331;22;19915;-87
2022/03/28 04:00:03;;;;;;;;;;;;;;;4.53;89.87;100909.81;6243504;22;19911;-87
2022/03/28 04:02:37;;;;;;;;;;;;;;;4.53;89.65;100907.09;6236119;22;19961;-89
2022/03/28 04:05:03;;;;;;;;;;;;;;;4.54;90.63;100906.69;6223012;22;19998;-89
2022/03/28 04:07:28;;;;;;;;;;;;;;;4.55;91.67;100908.28;6222577;22;19998;-89
2022/03/28 04:09:54;;;;;;;;;;;;;;;4.56;91.40;100915.34;6223059;22;19915;-88
2022/03/28 04:12:19;;;;;;;;;;;;;;;4.54;91.78;100912.19;6222939;22;20291;-88
2022/03/28 04:14:44;;;;;;;;;;;;;;;4.49;91.06;100907.00;6222695;22;19982;-89
2022/03/28 04:17:10;;;;;;;;;;;;;;;4.43;90.35;100911.28;6222313;22;19998;-89
2022/03/28 04:19:35;;;;;;;;;;;;;;;4.39;89.96;100899.44;6222291;22;19919;-88
2022/03/28 04:22:01;;;;;;;;;;;;;;;4.35;88.25;100898.63;6222837;22;19911;-87
2022/03/28 04:24:26;;;;;;;;;;;;;;;4.32;88.97;100891.13;6223435;22;19911;-88
2022/03/28 04:26:52;;;;;;;;;;;;;;;4.34;87.88;100898.97;6198023;22;19916;-88
2022/03/28 04:29:18;;;;;;;;;;;;;;;4.30;89.83;100896.19;6223261;22;19915;-88
2022/03/28 04:31:44;;;;;;;;;;;;;;;4.30;92.05;100901.69;6222102;22;19915;-88
2022/03/28 04:34:09;;;;;;;;;;;;;;;4.32;91.90;100901.31;6247792;22;19911;-88
2022/03/28 04:36:35;;;;;;;;;;;;;;;4.35;92.63;100903.31;6248246;22;19923;-88
2022/03/28 04:39:00;;;;;;;;;;;;;;;4.36;92.69;100897.47;6222619;22;19915;-90
2022/03/28 04:41:26;;;;;;;;;;;;;;;4.36;91.79;100902.97;6222897;22;19934;-88
2022/03/28 04:43:51;;;;;;;;;;;;;;;4.35;91.00;100904.13;6222352;22;19915;-89
2022/03/28 04:46:17;;;;;;;;;;;;;;;4.31;90.82;100897.00;6222678;22;19911;-89
2022/03/28 04:48:42;;;;;;;;;;;;;;;4.30;91.93;100901.69;6222237;22;19919;-89
2022/03/28 04:51:08;;;;;;;;;;;;;;;4.32;91.69;100893.88;6220463;22;19926;-87
2022/03/28 04:53:33;;;;;;;;;;;;;;;4.45;94.53;100900.69;6221514;22;19919;-87
2022/03/28 04:55:59;;;;;;;;;;;;;;;4.51;95.01;100893.72;6220554;22;19919;-88
2022/03/28 04:58:24;;;;;;;;;;;;;;;4.72;97.72;100900.59;6220465;22;19915;-88
2022/03/28 05:00:51;;;;;;;;;;;;;;;4.83;98.43;100896.00;6220054;22;20331;-91
2022/03/28 05:03:16;;;;;;;;;;;;;;;4.87;97.49;100892.13;6220563;22;20224;-91
2022/03/28 05:05:42;;;;;;;;;;;;;;;4.90;96.40;100896.06;6220809;22;19922;-86
2022/03/28 05:08:07;;;;;;;;;;;;;;;4.91;95.52;100897.66;6219508;22;19915;-86
2022/03/28 05:10:33;;;;;;;;;;;;;;;4.90;93.84;100880.38;6221302;22;19969;-86
2022/03/28 05:12:58;;;;;;;;;;;;;;;4.91;92.89;100900.41;6219896;22;20252;-86
2022/03/28 05:15:23;;;;;;;;;;;;;;;4.92;92.33;100893.75;6220871;22;20255;-86
2022/03/28 05:17:49;;;;;;;;;;;;;;;4.96;93.06;100897.31;6244917;22;19922;-85
2022/03/28 05:20:14;;;;;;;;;;;;;;;5.04;93.34;100898.97;6244852;22;20020;-85
2022/03/28 05:22:45;;;;;;;;;;;;;;;5.17;94.94;100905.78;6220919;22;19954;-87
2022/03/28 05:25:11;;;;;;;;;;;;;;;5.30;96.36;100901.53;6245071;22;19922;-86
2022/03/28 05:27:46;;;;;;;;;;;;;;;5.42;96.96;100906.00;6220549;22;19970;-85
2022/03/28 05:30:12;;;;;;;;;;;;;;;5.52;96.21;100911.56;6244445;22;19994;-87
2022/03/28 05:32:37;;;;;;;;;;;;;;;5.63;96.35;100906.13;6221474;22;19947;-86
2022/03/28 05:35:03;;;;;;;;;;;;;;;5.76;96.73;100906.63;6221611;22;19990;-86
2022/03/28 05:37:28;;;;;;;;;;;;;;;5.91;96.01;100908.31;6221493;22;19915;-85
2022/03/28 05:39:54;;;;;;;;;;;;;;;6.05;98.69;100906.44;6221789;22;19911;-86
2022/03/28 05:42:19;;;;;;;;;;;;;;;6.17;98.92;100905.31;6196475;22;19911;-87
2022/03/28 05:44:45;;;;;;;;;;;;;;;6.26;99.54;100908.53;6221729;22;20275;-85
2022/03/28 05:47:10;;;;;;;;;;;;;;;6.41;98.92;100907.41;6246631;22;19919;-88
2022/03/28 05:49:36;;;;;;;;;;;;;;;6.55;97.64;100907.44;6221488;22;20256;-92
2022/03/28 05:52:01;;;;;;;;;;;;;;;6.75;97.30;100909.88;6274158;22;19919;-90
2022/03/28 05:54:26;;;;;;;;;;;;;;;6.94;98.41;100906.75;6222026;22;20347;-90
2022/03/28 05:56:52;;;;;;;;;;;;;;;7.12;97.96;100902.06;6247140;22;19916;-92
2022/03/28 05:59:18;;;;;;;;;;;;;;;7.26;96.90;100902.06;6222283;22;19920;-91
2022/03/28 06:01:43;;;;;;;;;;;;;;;7.41;95.49;100906.41;6273120;22;20290;-91
2022/03/28 06:04:09;;;;;;;;;;;;;;;7.58;94.08;100898.50;6245218;22;19916;-88
2022/03/28 06:06:34;;;;;;;;;;;;;;;7.73;92.39;100886.25;6244993;22;20335;-84
2022/03/28 06:09:00;;;;;;;;;;;;;;;7.90;91.42;100886.25;6219829;22;19915;-89
2022/03/28 06:11:25;;;;;;;;;;;;;;;8.05;90.14;100884.22;6220089;22;19961;-87
2022/03/28 06:13:51;;;;;;;;;;;;;;;8.16;89.24;100887.75;6220856;22;19915;-86
2022/03/28 06:16:16;;;;;;;;;;;;;;;8.27;88.33;100894.03;6273143;22;19919;-88
2022/03/28 06:18:42;;;;;;;;;;;;;;;8.36;88.01;100894.41;6273956;22;19911;-87
2022/03/28 06:21:08;;;;;;;;;;;;;;;8.48;87.39;100897.91;6247033;22;20391;-88
2022/03/28 06:23:36;;;;;;;;;;;;;;;8.45;87.69;100894.00;6274247;22;19911;-88
2022/03/28 06:26:02;;;;;;;;;;;;;;;8.60;87.17;100889.16;6246743;22;19915;-87
2022/03/28 06:28:27;;;;;;;;;;;;;;;8.77;85.68;100893.81;6197091;22;19922;-92
2022/03/28 06:30:53;;;;;;;;;;;;;;;8.86;84.75;100885.84;6277224;22;19916;-92
2022/03/28 06:33:18;;;;;;;;;;;;;;;8.94;83.32;100892.91;6250684;22;19973;-94
2022/03/28 06:35:45;;;;;;;;;;;;;;;9.08;82.81;100881.75;6251414;22;19915;-92
2022/03/28 06:38:10;;;;;;;;;;;;;;;9.16;81.30;100880.50;6226055;22;19922;-94
2022/03/28 06:40:36;;;;;;;;;;;;;;;9.41;80.69;100882.28;6252315;22;19919;-93
2022/03/28 06:43:01;;;;;;;;;;;;;;;9.63;79.43;100892.78;6225793;22;19911;-94
2022/03/28 06:45:27;;;;;;;;;;;;;;;9.87;78.40;100882.63;6226449;22;19962;-93
2022/03/28 06:47:52;;;;;;;;;;;;;;;10.15;77.06;100882.34;6226245;22;19971;-93
2022/03/28 06:50:18;;;;;;;;;;;;;;;10.23;73.97;100878.28;6229208;22;19935;-92
2022/03/28 06:52:43;;;;;;;;;;;;;;;10.41;72.88;100877.31;6227122;22;19911;-94
2022/03/28 06:55:10;;;;;;;;;;;;;;;10.66;71.50;100883.31;6252297;22;19916;-94
2022/03/28 06:57:36;;;;;;;;;;;;;;;10.80;70.55;100872.00;6202072;22;20362;-94
2022/03/28 07:00:01;;;;;;;;;;;;;;;11.06;69.50;100878.78;6228059;22;19911;-94
2022/03/28 07:19:55;;;;;;;;;;;;;;;12.03;60.90;100868.38;6274563;22;19982;-92
2022/03/28 07:22:21;;;;;;;;;;;;;;;12.00;56.45;100858.91;6225700;22;20323;-93
2022/03/28 07:24:46;;;;;;;;;;;;;;;11.90;54.84;100859.88;6224271;22;19916;-93
2022/03/28 07:27:12;;;;;;;;;;;;;;;11.72;53.95;100859.44;6226818;22;19974;-94
2022/03/28 07:29:38;;;;;;;;;;;;;;;11.93;54.35;100867.38;6226206;22;19919;-92
2022/03/28 07:32:03;;;;;;;;;;;;;;;11.98;54.16;100878.00;6225971;22;20320;-94
2022/03/28 07:34:34;;;;;;;;;;;;;;;12.24;55.49;100864.41;6255301;22;19919;-93
2022/03/28 07:37:02;;;;;;;;;;;;;;;12.29;55.32;100861.13;6251369;22;19915;-93
2022/03/28 07:39:28;;;;;;;;;;;;;;;12.40;55.93;100842.19;6250841;22;19915;-94
2022/03/28 07:41:54;;;;;;;;;;;;;;;12.60;54.94;100842.94;6224892;22;19919;-94
2022/03/28 07:44:19;;;;;;;;;;;;;;;12.75;54.54;100858.13;6226029;22;19911;-92
2022/03/28 07:46:45;;;;;;;;;;;;;;;12.91;53.23;100851.78;6225311;22;19916;-92
2022/03/28 07:49:11;;;;;;;;;;;;;;;13.05;52.45;100843.91;6224708;22;20238;-93
2022/03/28 07:51:36;;;;;;;;;;;;;;;13.29;51.59;100843.75;6276350;22;19922;-93
2022/03/28 07:54:02;;;;;;;;;;;;;;;13.62;49.35;100842.50;6224607;22;19907;-93
2022/03/28 07:56:27;;;;;;;;;;;;;;;13.65;48.74;100840.81;6224628;22;20255;-94
2022/03/28 07:58:52;;;;;;;;;;;;;;;13.76;49.27;100842.09;6224308;22;19919;-92
2022/03/28 08:01:18;;;;;;;;;;;;;;;13.94;48.93;100828.47;6224723;22;19926;-92
2022/03/28 08:03:43;;;;;;;;;;;;;;;14.10;48.15;100838.00;6275800;22;19915;-92
2022/03/28 08:06:09;;;;;;;;;;;;;;;14.23;47.98;100830.44;6249035;22;20402;-93
2022/03/28 08:08:35;;;;;;;;;;;;;;;14.28;47.83;100838.25;6224734;22;20332;-93
2022/03/28 08:11:01;;;;;;;;;;;;;;;14.33;47.37;100835.72;6250502;22;19938;-94
2022/03/28 08:13:26;;;;;;;;;;;;;;;14.59;47.91;100831.00;6224421;22;20323;-92
2022/03/28 08:15:52;;;;;;;;;;;;;;;14.54;46.15;100827.97;6223591;22;19917;-92
2022/03/28 08:18:17;;;;;;;;;;;;;;;14.47;46.06;100817.81;6248881;22;20370;-91
2022/03/28 08:20:43;;;;;;;;;;;;;;;14.72;45.93;100822.63;6275641;22;19915;-93
2022/03/28 08:23:08;;;;;;;;;;;;;;;14.59;45.07;100816.25;6223538;22;19915;-91
2022/03/28 08:25:34;;;;;;;;;;;;;;;14.57;46.30;100821.47;6249148;22;19939;-92
2022/03/28 08:28:00;;;;;;;;;;;;;;;14.91;45.32;100816.81;6223565;22;19937;-92
2022/03/28 08:30:25;;;;;;;;;;;;;;;14.87;44.92;100823.72;6249381;22;20370;-92
2022/03/28 08:32:50;;;;;;;;;;;;;;;15.08;45.07;100813.88;6248769;22;19911;-92
2022/03/28 08:35:16;;;;;;;;;;;;;;;15.04;44.67;100805.63;6223365;22;20000;-90
2022/03/28 08:37:42;;;;;;;;;;;;;;;15.26;45.02;100808.47;6222664;22;19911;-92
2022/03/28 08:40:07;;;;;;;;;;;;;;;15.43;44.64;100807.09;6248051;22;19915;-90
2022/03/28 08:42:33;;;;;;;;;;;;;;;15.69;44.64;100800.19;6223612;22;19918;-93
2022/03/28 08:45:14;;;;;;;;;;;;;;;15.94;44.43;100799.31;6249532;22;19922;-92
2022/03/28 08:47:42;;;;;;;;;;;;;;;16.05;43.50;100796.13;6224199;22;19945;-93
2022/03/28 08:50:07;;;;;;;;;;;;;;;16.12;43.19;100795.88;6224601;22;20358;-95
2022/03/28 08:52:33;;;;;;;;;;;;;;;16.25;43.06;100791.75;6224900;22;19922;-94
2022/03/28 08:54:58;;;;;;;;;;;;;;;16.48;42.80;100786.88;6223664;22;19915;-93
2022/03/28 08:57:24;;;;;;;;;;;;;;;16.50;44.21;100782.38;6224136;22;20395;-88
2022/03/28 08:59:49;;;;;;;;;;;;;;;16.77;42.72;100782.53;6222408;22;19912;-87
2022/03/28 09:02:32;;;;;;;;;;;;;;;16.88;42.26;100784.09;6222288;22;20262;-87
2022/03/28 09:04:57;;;;;;;;;;;;;;;17.09;42.42;100786.03;6224525;22;19921;-88
2022/03/28 09:07:26;;;;;;;;;;;;;;;17.33;42.19;100770.19;6275277;22;19985;-88
2022/03/28 09:10:18;;;;;;;;;;;;;;;17.45;41.27;100768.50;6222257;22;19920;-89
2022/03/28 09:12:56;;;;;;;;;;;;;;;17.46;40.64;100762.44;6268819;22;19911;-89
2022/03/28 09:15:23;;;;;;;;;;;;;;;17.21;41.26;100759.91;6274599;22;19926;-90
2022/03/28 09:17:58;;;;;;;;;;;;;;;17.43;41.55;100760.53;6222763;22;19927;-88
2022/03/28 09:20:24;;;;;;;;;;;;;;;17.58;41.18;100753.09;6222119;22;19915;-88
2022/03/28 09:22:50;;;;;;;;;;;;;;;17.77;39.96;100736.25;6222909;22;19925;-90
2022/03/28 09:25:18;;;;;;;;;;;;;;;17.42;40.47;100753.38;6247462;22;19922;-89
2022/03/28 09:27:44;;;;;;;;;;;;;;;17.54;40.81;100749.66;6248741;22;19915;-89
2022/03/28 09:30:17;;;;;;;;;;;;;;;17.85;40.46;100745.91;6222001;22;20335;-90
2022/03/28 09:32:47;;;;;;;;;;;;;;;18.11;39.50;100745.09;6247961;22;19915;-90
2022/03/28 09:35:12;;;;;;;;;;;;;;;18.20;39.15;100740.69;6221976;22;19946;-91
2022/03/28 09:37:58;;;;;;;;;;;;;;;18.40;39.99;100730.44;6247891;22;19916;-91
2022/03/28 09:40:24;;;;;;;;;;;;;;;18.63;38.78;100729.78;6248720;22;19966;-89
2022/03/28 09:42:50;;;;;;;;;;;;;;;18.89;37.80;100727.28;6227303;22;19923;-88
2022/03/28 09:45:20;;;;;;;;;;;;;;;18.94;38.00;100720.22;6231202;22;19919;-92
2022/03/28 09:47:55;;;;;;;;;;;;;;;18.67;38.96;100726.00;6236966;22;19915;-90
2022/03/28 09:50:29;;;;;;;;;;;;;;;18.58;38.00;100712.78;6227978;22;19922;-90
2022/03/28 09:52:55;;;;;;;;;;;;;;;18.60;38.79;100713.84;6199062;22;20236;-91
2022/03/28 09:55:21;;;;;;;;;;;;;;;18.91;38.25;100707.13;6223388;22;19918;-91
2022/03/28 09:57:46;;;;;;;;;;;;;;;19.10;38.16;100706.53;6248279;22;19922;-90
2022/03/28 10:00:19;;;;;;;;;;;;;;;19.23;37.48;100703.47;6197411;22;19919;-93
2022/03/28 10:02:46;;;;;;;;;;;;;;;19.31;37.45;100699.03;6198076;22;19911;-92
2022/03/28 10:05:12;;;;;;;;;;;;;;;19.19;36.98;100700.06;6222508;22;20323;-90
2022/03/28 10:07:37;;;;;;;;;;;;;;;19.23;37.55;100699.88;6223434;22;19922;-92
2022/03/28 10:10:03;;;;;;;;;;;;;;;19.29;36.66;100687.47;6222504;22;19915;-92
2022/03/28 10:12:29;;;;;;;;;;;;;;;19.59;36.46;100690.34;6223055;22;20093;-92
2022/03/28 10:14:57;;;;;;;;;;;;;;;19.42;36.50;100690.81;6222793;22;20087;-91
2022/03/28 10:17:26;;;;;;;;;;;;;;;19.45;36.07;100689.84;6249558;22;19921;-91
2022/03/28 10:19:54;;;;;;;;;;;;;;;19.50;35.86;100680.75;6222869;22;19915;-93
2022/03/28 10:22:24;;;;;;;;;;;;;;;19.71;35.44;100678.03;6222857;22;19981;-92
2022/03/28 10:24:50;;;;;;;;;;;;;;;19.96;36.09;100671.84;6224488;22;19955;-93
2022/03/28 10:27:15;;;;;;;;;;;;;;;20.29;35.05;100658.31;6250733;22;20695;-92
2022/03/28 10:29:41;;;;;;;;;;;;;;;20.54;35.65;100656.13;6249991;22;19915;-90
2022/03/28 10:32:12;;;;;;;;;;;;;;;20.58;34.45;100648.22;6225589;22;19946;-93
2022/03/28 10:34:47;;;;;;;;;;;;;;;20.52;34.55;100644.53;6199373;22;19919;-92
2022/03/28 10:37:29;;;;;;;;;;;;;;;20.75;34.20;100637.94;6248104;22;19915;-94
2022/03/28 10:40:13;;;;;;;;;;;;;;;20.67;34.19;100640.41;6247395;22;19981;-92
2022/03/28 10:42:44;;;;;;;;;;;;;;;20.31;34.00;100624.78;6222414;22;19915;-93
2022/03/28 10:45:10;;;;;;;;;;;;;;;20.54;34.52;100625.13;6272197;22;19994;-91
2022/03/28 10:47:46;;;;;;;;;;;;;;;20.71;33.96;100623.28;6222281;22;19946;-94
2022/03/28 10:50:20;;;;;;;;;;;;;;;20.80;33.46;100614.69;6222228;22;19962;-89
2022/03/28 10:53:06;;;;;;;;;;;;;;;20.87;34.11;100608.59;6222755;22;20347;-92
2022/03/28 10:55:43;;;;;;;;;;;;;;;21.18;33.16;100603.13;6223799;22;19915;-91
2022/03/28 10:58:13;;;;;;;;;;;;;;;21.31;33.28;100586.56;6223404;22;19949;-90
2022/03/28 11:00:43;;;;;;;;;;;;;;;21.50;32.86;100587.00;6221748;22;19922;-92
2022/03/28 11:03:09;;;;;;;;;;;;;;;21.57;32.64;100568.84;6197715;22;19919;-92
2022/03/28 11:05:52;;;;;;;;;;;;;;;21.59;33.37;100577.59;6222838;22;20622;-94
2022/03/28 11:08:31;;;;;;;;;;;;;;;21.60;31.27;100573.47;6226978;22;20358;-93
2022/03/28 11:11:16;;;;;;;;;;;;;;;21.39;30.99;100564.34;6274630;22;19978;-93
2022/03/28 11:13:41;;;;;;;;;;;;;;;20.88;32.14;100565.06;6222310;22;19999;-93
2022/03/28 11:16:17;;;;;;;;;;;;;;;21.26;32.36;100555.50;6247940;22;19944;-93
2022/03/28 11:18:43;;;;;;;;;;;;;;;21.55;31.68;100555.25;6247858;22;19938;-93
2022/03/28 11:21:11;;;;;;;;;;;;;;;21.50;31.40;100549.53;6224248;22;19963;-93
2022/03/28 11:23:37;;;;;;;;;;;;;;;21.65;31.46;100539.66;6252234;22;19919;-92
2022/03/28 11:26:03;;;;;;;;;;;;;;;21.55;31.00;100534.72;6251898;22;19930;-90
2022/03/28 11:28:33;;;;;;;;;;;;;;;21.85;31.41;100528.25;6225528;22;19926;-90
2022/03/28 11:30:59;;;;;;;;;;;;;;;21.69;30.42;100519.66;6276623;22;19954;-90
2022/03/28 11:33:41;;;;;;;;;;;;;;;21.24;31.07;100513.66;6225248;22;19911;-91
2022/03/28 11:36:10;;;;;;;;;;;;;;;21.62;31.45;100500.38;6226965;22;19926;-90
2022/03/28 11:38:39;;;;;;;;;;;;;;;21.74;30.32;100491.47;6226195;22;19919;-92
2022/03/28 11:41:06;;;;;;;;;;;;;;;21.66;30.04;100492.44;6280639;22;19916;-92
2022/03/28 11:43:33;;;;;;;;;;;;;;;21.37;30.66;100488.63;6252483;22;19942;-92
2022/03/28 11:45:59;;;;;;;;;;;;;;;21.73;30.30;100483.50;6251076;22;20003;-91
2022/03/28 11:48:24;;;;;;;;;;;;;;;21.61;30.01;100479.06;6200574;22;19915;-92
2022/03/28 11:50:52;;;;;;;;;;;;;;;21.66;30.21;100469.84;6226658;22;19922;-93
2022/03/28 11:53:19;;;;;;;;;;;;;;;22.02;29.98;100474.72;6228505;22;19915;-92
2022/03/28 11:55:48;;;;;;;;;;;;;;;22.02;28.26;100463.44;6230638;22;19919;-91
2022/03/28 11:58:16;;;;;;;;;;;;;;;22.08;28.65;100458.56;6225886;22;19940;-91
2022/03/28 12:00:46;;;;;;;;;;;;;;;22.20;28.33;100457.31;6231388;22;19922;-91
2022/03/28 12:03:11;;;;;;;;;;;;;;;22.17;28.02;100452.69;6226890;22;19911;-92
2022/03/28 12:05:41;;;;;;;;;;;;;;;22.15;28.05;100449.63;6218352;22;19918;-91
2022/03/28 12:08:13;;;;;;;;;;;;;;;22.28;28.33;100435.78;6221514;22;19915;-92
2022/03/28 12:10:40;;;;;;;;;;;;;;;22.31;28.55;100429.13;6250813;22;19923;-93
2022/03/28 12:13:06;;;;;;;;;;;;;;;22.29;28.12;100430.91;6224950;22;19915;-92
2022/03/28 12:15:36;;;;;;;;;;;;;;;22.49;27.91;100438.41;6249998;22;19915;-92
2022/03/28 12:18:03;;;;;;;;;;;;;;;22.46;26.41;100419.66;6223262;22;19983;-93
2022/03/28 12:20:38;;;;;;;;;;;;;;;22.59;26.32;100428.44;6197057;22;20437;-91
2022/03/28 12:23:04;;;;;;;;;;;;;;;22.50;26.49;100406.81;6248575;22;20474;-90
2022/03/28 12:25:30;;;;;;;;;;;;;;;22.56;26.99;100404.00;6246985;22;19920;-90
2022/03/28 12:27:58;;;;;;;;;;;;;;;22.48;26.29;100400.91;6221337;22;20310;-93
2022/03/28 12:30:30;;;;;;;;;;;;;;;22.42;25.88;100405.00;6198615;22;20002;-92
2022/03/28 12:32:55;;;;;;;;;;;;;;;22.48;26.87;100392.44;6249328;22;19919;-91
2022/03/28 12:35:21;;;;;;;;;;;;;;;22.54;26.42;100381.91;6222345;22;19916;-93
2022/03/28 12:37:57;;;;;;;;;;;;;;;22.67;26.75;100385.00;6248237;22;19919;-92
2022/03/28 12:40:27;;;;;;;;;;;;;;;22.83;26.38;100389.16;6247034;22;19915;-92
2022/03/28 12:42:52;;;;;;;;;;;;;;;22.99;26.03;100368.59;6197421;22;19915;-93
2022/03/28 12:45:18;;;;;;;;;;;;;;;23.01;26.62;100368.09;6222040;22;19915;-93
2022/03/28 12:47:43;;;;;;;;;;;;;;;23.01;26.39;100363.16;6223008;22;19926;-90
2022/03/28 12:50:08;;;;;;;;;;;;;;;23.07;26.42;100354.69;6246127;22;19938;-91
2022/03/28 12:52:34;;;;;;;;;;;;;;;22.94;26.18;100349.56;6274919;22;19912;-91
2022/03/28 12:54:59;;;;;;;;;;;;;;;22.86;27.08;100330.78;6274393;22;19916;-90
2022/03/28 12:57:30;;;;;;;;;;;;;;;22.82;26.78;100345.19;6221519;22;19915;-93
2022/03/28 12:59:56;;;;;;;;;;;;;;;23.03;27.47;100335.16;6221576;22;19919;-88
2022/03/28 13:02:21;;;;;;;;;;;;;;;23.22;26.75;100335.38;6271984;22;19919;-89